Time;durP1;ratioP1;P1;durP2;ratioP2;P2;SDS_P1;SDS_P2;PMS_P1;PMS_P2;Temp;Humidity;BMP_temperature;BMP_pressure;BME280_temperature;BME280_humidity;BME280_pressure;Samples;Min_cycle;Max_cycle;Signal;HPM_P1;HPM_P2
2022/02/16 00:00:36;;;;;;;16.20;2.20;;;;;;;6.71;100.00;100181.19;5070748;28;20101;-32
2022/02/16 00:03:04;;;;;;;17.58;2.20;;;;;;;6.71;100.00;100170.09;5071846;28;20052;-32
2022/02/16 00:05:35;;;;;;;14.25;2.05;;;;;;;6.72;100.00;100163.44;5071574;28;20067;-31
2022/02/16 00:08:04;;;;;;;16.38;2.08;;;;;;;6.74;100.00;100160.38;5070520;28;20048;-31
2022/02/16 00:10:32;;;;;;;14.00;1.80;;;;;;;6.74;100.00;100163.97;5071025;28;20063;-32
2022/02/16 00:13:01;;;;;;;13.98;1.55;;;;;;;6.77;100.00;100145.94;5071525;28;20063;-30
2022/02/16 00:15:28;;;;;;;16.58;2.13;;;;;;;6.80;100.00;100148.09;5071445;28;20071;-34
2022/02/16 00:17:56;;;;;;;14.63;1.73;;;;;;;6.81;100.00;100149.75;5071531;28;20041;-31
2022/02/16 00:20:25;;;;;;;18.08;2.53;;;;;;;6.81;100.00;100136.72;5070494;28;20503;-31
2022/02/16 00:22:54;;;;;;;14.60;1.60;;;;;;;6.83;100.00;100139.19;5071128;28;20098;-32
2022/02/16 00:25:22;;;;;;;15.15;1.67;;;;;;;6.83;100.00;100134.50;5071363;28;20041;-32
2022/02/16 00:27:50;;;;;;;13.00;1.80;;;;;;;6.84;100.00;100124.22;5070701;28;20580;-30
2022/02/16 00:30:20;;;;;;;18.25;2.00;;;;;;;6.83;100.00;100125.34;5071253;28;20052;-30
2022/02/16 00:32:47;;;;;;;14.63;2.70;;;;;;;6.84;100.00;100113.13;5071096;28;20489;-31
2022/02/16 00:35:15;;;;;;;14.85;1.88;;;;;;;6.86;100.00;100114.50;5070413;28;20543;-31
2022/02/16 00:37:43;;;;;;;14.15;2.08;;;;;;;6.88;100.00;100100.34;5070766;28;20128;-30
2022/02/16 00:40:12;;;;;;;14.95;2.13;;;;;;;6.90;100.00;100090.59;5071473;28;20051;-30
2022/02/16 00:42:40;;;;;;;14.32;1.67;;;;;;;6.91;100.00;100083.94;5070229;28;20043;-30
2022/02/16 00:45:08;;;;;;;16.75;2.00;;;;;;;6.91;100.00;100083.94;5069804;28;20050;-31
2022/02/16 00:47:38;;;;;;;18.45;2.05;;;;;;;6.93;100.00;100068.97;5070874;28;20048;-30
2022/02/16 00:50:06;;;;;;;15.07;1.88;;;;;;;6.94;100.00;100088.09;5068882;28;20517;-30
2022/02/16 00:52:38;;;;;;;15.43;1.95;;;;;;;6.94;100.00;100068.66;5069936;28;20048;-32
2022/02/16 00:55:07;;;;;;;13.55;2.05;;;;;;;6.95;100.00;100059.22;5069914;28;20059;-32
2022/02/16 00:57:36;;;;;;;20.75;1.80;;;;;;;6.94;100.00;100052.03;5068587;28;20186;-33
2022/02/16 01:00:04;;;;;;;16.00;2.50;;;;;;;6.98;100.00;100053.09;5071145;28;20064;-31
2022/02/16 01:02:41;;;;;;;15.10;2.72;;;;;;;7.00;100.00;100042.50;5068376;28;20068;-31
2022/02/16 01:05:10;;;;;;;17.58;2.40;;;;;;;7.03;100.00;100039.13;5071207;28;20493;-31
2022/02/16 01:07:40;;;;;;;21.33;3.47;;;;;;;7.05;100.00;100033.31;5069486;28;20102;-32
2022/02/16 01:10:10;;;;;;;20.30;3.33;;;;;;;7.07;100.00;100029.13;5068772;28;20052;-31
2022/02/16 01:12:43;;;;;;;18.33;3.20;;;;;;;7.08;100.00;100021.63;5069648;28;20072;-32
2022/02/16 01:15:12;;;;;;;21.05;4.05;;;;;;;7.12;100.00;100023.50;5069809;28;20052;-31
2022/02/16 01:17:44;;;;;;;20.67;5.30;;;;;;;7.16;100.00;100013.47;5068614;28;20090;-32
2022/02/16 01:20:26;;;;;;;25.70;5.95;;;;;;;7.19;100.00;100018.41;5071367;28;20052;-30
2022/02/16 01:23:06;;;;;;;21.92;5.72;;;;;;;7.24;100.00;100012.78;5073408;28;20052;-30
2022/02/16 01:25:34;;;;;;;22.23;5.63;;;;;;;7.29;100.00;99999.97;5073695;28;20425;-31
2022/02/16 01:28:08;;;;;;;31.35;5.65;;;;;;;7.29;100.00;99995.25;5073588;28;20139;-31
2022/02/16 01:30:40;;;;;;;26.77;5.90;;;;;;;7.32;100.00;99985.50;5072173;28;20080;-31
2022/02/16 01:33:15;;;;;;;36.13;6.97;;;;;;;7.34;100.00;99981.31;5073221;28;20136;-30
2022/02/16 01:35:50;;;;;;;28.63;5.55;;;;;;;7.35;100.00;99971.03;5073012;28;20055;-32
2022/02/16 01:38:17;;;;;;;25.20;5.05;;;;;;;7.38;100.00;99957.41;5072119;28;20102;-33
2022/02/16 01:40:53;;;;;;;33.33;4.95;;;;;;;7.39;100.00;99953.50;5073128;28;20159;-31
2022/02/16 01:43:20;;;;;;;27.02;5.97;;;;;;;7.41;100.00;99931.78;5072885;28;20049;-31
2022/02/16 01:45:51;;;;;;;30.55;6.25;;;;;;;7.41;100.00;99920.69;5072108;28;20071;-32
2022/02/16 01:48:24;;;;;;;30.80;6.50;;;;;;;7.41;100.00;99931.78;5074316;28;20089;-31
2022/02/16 01:50:52;;;;;;;27.90;5.60;;;;;;;7.42;100.00;99924.28;5072725;28;20309;-31
2022/02/16 01:53:38;;;;;;;24.90;5.55;;;;;;;7.42;100.00;99925.13;5072179;28;20041;-31
2022/02/16 01:56:06;;;;;;;24.85;4.68;;;;;;;7.43;100.00;99910.13;5072768;28;20072;-31
2022/02/16 01:58:40;;;;;;;16.92;3.58;;;;;;;7.46;100.00;99897.59;5071885;28;20479;-31
2022/02/16 02:01:13;;;;;;;22.23;3.58;;;;;;;7.46;100.00;99906.75;5074249;28;20401;-31
2022/02/16 02:04:00;;;;;;;21.90;3.80;;;;;;;7.48;100.00;99912.81;5072699;28;20049;-31
2022/02/16 02:06:30;;;;;;;26.60;4.07;;;;;;;7.50;100.00;99915.28;5071881;28;20056;-30
2022/02/16 02:08:59;;;;;;;22.58;4.57;;;;;;;7.51;100.00;99915.00;5063912;28;20356;-32
2022/02/16 02:11:28;;;;;;;18.08;4.28;;;;;;;7.52;100.00;99905.53;5072280;28;20607;-30
2022/02/16 02:14:07;;;;;;;29.70;5.40;;;;;;;7.51;100.00;99894.72;5071609;28;20044;-31
2022/02/16 02:16:59;;;;;;;31.33;4.40;;;;;;;7.50;100.00;99887.53;5072303;28;20053;-31
2022/02/16 02:19:28;;;;;;;29.75;5.15;;;;;;;7.52;100.00;99886.09;5072321;28;20052;-31
2022/02/16 02:22:00;;;;;;;29.00;5.03;;;;;;;7.49;100.00;99872.81;5071364;28;20083;-31
2022/02/16 02:24:29;;;;;;;26.10;4.43;;;;;;;7.46;100.00;99862.31;5063720;28;20055;-31
2022/02/16 02:26:57;;;;;;;27.10;4.60;;;;;;;7.45;100.00;99871.78;5071328;28;20053;-30
2022/02/16 02:29:25;;;;;;;22.20;4.05;;;;;;;7.44;100.00;99869.31;5071835;28;20053;-31
2022/02/16 02:31:59;;;;;;;26.88;4.63;;;;;;;7.44;100.00;99870.13;5070807;28;20048;-30
2022/02/16 02:34:27;;;;;;;25.23;4.55;;;;;;;7.46;100.00;99858.72;5069929;28;20501;-30
2022/02/16 02:36:54;;;;;;;29.95;4.80;;;;;;;7.46;100.00;99861.50;5071776;28;20048;-31
2022/02/16 02:39:23;;;;;;;25.33;4.13;;;;;;;7.45;100.00;99843.19;5073530;28;20037;-31
2022/02/16 02:41:51;;;;;;;21.20;4.18;;;;;;;7.47;100.00;99846.50;5071322;28;20094;-32
2022/02/16 02:44:19;;;;;;;29.75;4.57;;;;;;;7.45;100.00;99840.41;5073063;28;20049;-31
2022/02/16 02:46:48;;;;;;;26.38;4.43;;;;;;;7.47;100.00;99840.94;5071638;28;20053;-30
2022/02/16 02:49:20;;;;;;;18.63;3.70;;;;;;;7.45;100.00;99844.03;5071249;28;20055;-32
2022/02/16 02:51:48;;;;;;;19.88;3.63;;;;;;;7.45;100.00;99832.91;5071792;28;20048;-31
2022/02/16 02:54:17;;;;;;;14.23;3.15;;;;;;;7.45;100.00;99826.53;5072386;28;20460;-31
2022/02/16 02:56:46;;;;;;;18.20;3.95;;;;;;;7.44;100.00;99831.28;5072078;28;20048;-30
2022/02/16 02:59:14;;;;;;;18.00;3.70;;;;;;;7.40;100.00;99815.53;5071571;28;20512;-33
2022/02/16 03:01:46;;;;;;;19.92;3.30;;;;;;;7.40;100.00;99812.75;5071579;28;20044;-30
2022/02/16 03:04:14;;;;;;;16.38;3.25;;;;;;;7.40;100.00;99818.28;5072858;28;20062;-31
2022/02/16 03:06:42;;;;;;;17.30;4.25;;;;;;;7.40;100.00;99801.66;5072730;28;20068;-32
2022/02/16 03:09:10;;;;;;;25.08;4.28;;;;;;;7.44;100.00;99803.50;5070699;28;20095;-31
2022/02/16 03:11:39;;;;;;;29.17;5.03;;;;;;;7.46;100.00;99789.34;5071283;28;20139;-31
2022/02/16 03:14:08;;;;;;;20.38;4.50;;;;;;;7.47;100.00;99761.28;5070993;28;20052;-30
2022/02/16 03:16:38;;;;;;;25.85;5.13;;;;;;;7.49;100.00;99766.53;5070612;28;20048;-31
2022/02/16 03:19:06;;;;;;;26.63;4.88;;;;;;;7.49;100.00;99745.16;5072708;28;20120;-30
2022/02/16 03:21:34;;;;;;;25.67;5.28;;;;;;;7.52;100.00;99724.28;5071158;28;20036;-31
2022/02/16 03:24:02;;;;;;;31.17;5.15;;;;;;;7.53;100.00;99712.06;5069936;28;20056;-30
2022/02/16 03:26:32;;;;;;;26.88;4.93;;;;;;;7.56;100.00;99700.34;5071588;28;20060;-31
2022/02/16 03:29:00;;;;;;;33.22;5.30;;;;;;;7.59;100.00;99686.63;5070891;28;20049;-30
2022/02/16 03:31:35;;;;;;;36.60;5.93;;;;;;;7.60;100.00;99690.25;5070097;28;20056;-32
2022/02/16 03:34:05;;;;;;;31.20;5.43;;;;;;;7.62;100.00;99682.44;5070858;28;20052;-31
2022/02/16 03:36:40;;;;;;;29.02;5.47;;;;;;;7.66;100.00;99674.31;5070819;28;20072;-31
2022/02/16 03:39:09;;;;;;;34.67;6.47;;;;;;;7.68;100.00;99667.31;5070007;28;20052;-31
2022/02/16 03:41:36;;;;;;;35.90;5.68;;;;;;;7.69;100.00;99652.31;5072175;28;20040;-31
2022/02/16 03:44:05;;;;;;;35.08;6.10;;;;;;;7.69;100.00;99632.88;5071082;28;20139;-32
2022/02/16 03:46:40;;;;;;;33.25;5.70;;;;;;;7.70;100.00;99648.41;5070522;28;20054;-31
2022/02/16 03:49:08;;;;;;;34.75;5.03;;;;;;;7.70;100.00;99633.69;5070525;28;20041;-33
2022/02/16 03:51:36;;;;;;;32.30;5.22;;;;;;;7.70;100.00;99636.47;5069631;28;20509;-30
2022/02/16 03:54:04;;;;;;;34.60;6.03;;;;;;;7.69;100.00;99619.00;5070559;28;20044;-32
2022/02/16 03:56:32;;;;;;;26.15;5.40;;;;;;;7.73;100.00;99610.88;5070494;28;20136;-32
2022/02/16 03:59:00;;;;;;;33.53;5.45;;;;;;;7.75;100.00;99614.97;5069350;28;20516;-31
2022/02/16 04:01:28;;;;;;;30.85;5.32;;;;;;;7.76;100.00;99597.19;5070441;28;20412;-30
2022/02/16 04:03:58;;;;;;;30.33;5.70;;;;;;;7.75;100.00;99609.44;5070040;28;20090;-30
2022/02/16 04:06:26;;;;;;;28.55;5.45;;;;;;;7.75;100.00;99603.03;5069799;28;20098;-31
2022/02/16 04:08:54;;;;;;;40.28;6.53;;;;;;;7.75;100.00;99595.53;5070078;28;20048;-31
2022/02/16 04:11:26;;;;;;;40.47;6.65;;;;;;;7.77;100.00;99593.28;5070254;28;20044;-31
2022/02/16 04:13:54;;;;;;;36.70;6.65;;;;;;;7.77;100.00;99589.69;5069426;28;20048;-30
2022/02/16 04:16:23;;;;;;;37.45;6.20;;;;;;;7.77;100.00;99573.84;5071382;28;20046;-32
2022/02/16 04:18:51;;;;;;;37.97;6.25;;;;;;;7.76;100.00;99561.09;5070413;28;20056;-34
2022/02/16 04:21:20;;;;;;;30.40;5.63;;;;;;;7.78;100.00;99558.00;5070319;28;20570;-33
2022/02/16 04:23:51;;;;;;;31.98;6.22;;;;;;;7.78;100.00;99567.16;5070059;28;20139;-30
2022/02/16 04:26:20;;;;;;;32.17;5.32;;;;;;;7.77;100.00;99554.41;5070399;28;20048;-30
2022/02/16 04:28:52;;;;;;;25.75;5.30;;;;;;;7.77;100.00;99562.72;5070004;28;20048;-31
2022/02/16 04:31:23;;;;;;;30.95;5.43;;;;;;;7.75;100.00;99587.22;5069936;28;20057;-31
2022/02/16 04:33:52;;;;;;;28.50;4.38;;;;;;;7.75;100.00;99565.00;5068824;28;20581;-31
2022/02/16 04:36:26;;;;;;;21.42;4.30;;;;;;;7.76;100.00;99549.16;5071111;28;20127;-32
2022/02/16 04:38:58;;;;;;;24.20;4.30;;;;;;;7.75;100.00;99553.88;5069919;28;20048;-31
2022/02/16 04:41:27;;;;;;;20.73;4.72;;;;;;;7.69;100.00;99546.81;5070306;28;20481;-30
2022/02/16 04:43:57;;;;;;;26.63;3.97;;;;;;;7.69;100.00;99538.47;5069451;28;20052;-31
2022/02/16 04:46:25;;;;;;;20.63;4.05;;;;;;;7.67;100.00;99537.97;5069654;28;20408;-30
2022/02/16 04:48:53;;;;;;;25.98;4.30;;;;;;;7.67;100.00;99518.53;5068893;28;20136;-32
2022/02/16 04:51:22;;;;;;;18.67;3.30;;;;;;;7.65;100.00;99526.34;5068513;28;20139;-32
2022/02/16 04:53:50;;;;;;;22.00;3.80;;;;;;;7.66;100.00;99494.66;5066986;28;20436;-32
2022/02/16 04:56:18;;;;;;;20.90;3.83;;;;;;;7.65;100.00;99486.66;5068364;28;20235;-32
2022/02/16 04:58:46;;;;;;;23.85;3.83;;;;;;;7.66;100.00;99471.63;5069520;28;20102;-31
2022/02/16 05:01:20;;;;;;;17.83;3.60;;;;;;;7.65;100.00;99465.25;5069369;28;20040;-31
2022/02/16 05:03:51;;;;;;;19.15;3.22;;;;;;;7.65;100.00;99453.34;5069337;28;20110;-32
2022/02/16 05:06:20;;;;;;;18.25;3.42;;;;;;;7.63;100.00;99442.53;5069140;28;20048;-30
2022/02/16 05:08:49;;;;;;;22.15;3.85;;;;;;;7.62;100.00;99429.78;5068802;28;20052;-32
2022/02/16 05:11:17;;;;;;;23.15;3.90;;;;;;;7.64;100.00;99440.59;5067302;28;20048;-31
2022/02/16 05:13:54;;;;;;;18.08;2.92;;;;;;;7.60;100.00;99405.13;5069548;28;20044;-32
2022/02/16 05:16:23;;;;;;;21.52;3.50;;;;;;;7.62;100.00;99415.91;5068636;28;20504;-30
2022/02/16 05:18:55;;;;;;;19.08;3.70;;;;;;;7.60;100.00;99398.75;5069395;28;20136;-30
2022/02/16 05:21:24;;;;;;;22.13;3.40;;;;;;;7.63;100.00;99392.56;5069285;28;20055;-31
2022/02/16 05:23:53;;;;;;;15.95;3.40;;;;;;;7.66;100.00;99380.03;5068561;28;20147;-30
2022/02/16 05:26:22;;;;;;;13.32;2.78;;;;;;;7.67;100.00;99382.47;5069179;28;20052;-31
2022/02/16 05:28:50;;;;;;;12.15;3.63;;;;;;;7.73;100.00;99381.22;5069413;28;20409;-31
2022/02/16 05:31:19;;;;;;;12.50;3.63;;;;;;;7.77;100.00;99378.66;5068338;28;20102;-31
2022/02/16 05:33:47;;;;;;;13.38;3.83;;;;;;;7.81;100.00;99371.28;5070529;28;20072;-30
2022/02/16 05:36:19;;;;;;;11.13;4.18;;;;;;;7.86;100.00;99365.63;5069435;28;20045;-32
2022/02/16 05:38:48;;;;;;;16.25;4.57;;;;;;;7.88;100.00;99361.38;5067977;28;20098;-31
2022/02/16 05:41:17;;;;;;;12.50;3.70;;;;;;;7.92;100.00;99373.50;5069143;28;20044;-32
2022/02/16 05:43:47;;;;;;;9.73;3.95;;;;;;;7.95;100.00;99339.53;5068188;28;20448;-32
2022/02/16 05:46:16;;;;;;;11.93;4.32;;;;;;;7.99;100.00;99347.25;5069000;28;20054;-31
2022/02/16 05:48:44;;;;;;;15.32;4.97;;;;;;;8.02;100.00;99341.03;5068048;28;20045;-30
2022/02/16 05:51:12;;;;;;;11.27;4.30;;;;;;;8.01;100.00;99337.44;5068180;28;20060;-31
2022/02/16 05:53:41;;;;;;;16.23;5.03;;;;;;;8.01;100.00;99329.09;5068613;28;20383;-32
2022/02/16 05:56:11;;;;;;;12.90;4.30;;;;;;;8.04;100.00;99327.63;5069027;28;20056;-31
2022/02/16 05:58:40;;;;;;;13.98;3.72;;;;;;;8.09;100.00;99338.63;5067815;28;20473;-30
2022/02/16 06:01:09;;;;;;;14.60;3.58;;;;;;;8.07;100.00;99325.03;5068962;28;20398;-30
2022/02/16 06:03:44;;;;;;;15.63;4.18;;;;;;;8.11;100.00;99308.56;5068796;28;20048;-32
2022/02/16 06:06:16;;;;;;;17.40;3.53;;;;;;;8.11;100.00;99312.16;5067497;28;20041;-31
2022/02/16 06:08:44;;;;;;;13.38;3.00;;;;;;;8.12;100.00;99312.97;5071313;28;20469;-31
2022/02/16 06:11:12;;;;;;;19.95;3.40;;;;;;;8.13;100.00;99311.84;5072542;28;20058;-31
2022/02/16 06:13:43;;;;;;;11.93;3.13;;;;;;;8.14;100.00;99305.16;5070385;28;20460;-30
2022/02/16 06:16:15;;;;;;;15.88;2.92;;;;;;;8.14;100.00;99288.47;5068803;28;20123;-31
2022/02/16 06:18:43;;;;;;;14.73;2.80;;;;;;;8.13;100.00;99301.53;5070829;28;20571;-31
2022/02/16 06:21:12;;;;;;;17.13;2.67;;;;;;;8.13;100.00;99295.16;5070096;28;20120;-31
2022/02/16 06:23:44;;;;;;;16.45;2.47;;;;;;;8.11;100.00;99289.13;5070867;28;20045;-31
2022/02/16 06:26:12;;;;;;;15.35;2.03;;;;;;;8.09;100.00;99289.44;5058194;28;20098;-31
2022/02/16 06:28:43;;;;;;;13.50;2.83;;;;;;;8.09;100.00;99294.16;5070639;28;20076;-31
2022/02/16 06:31:15;;;;;;;16.50;2.47;;;;;;;8.10;100.00;99273.59;5068718;28;20063;-31
2022/02/16 06:33:44;;;;;;;14.68;2.33;;;;;;;8.07;100.00;99275.03;5069743;28;20064;-30
2022/02/16 06:36:11;;;;;;;14.93;1.95;;;;;;;8.05;100.00;99282.06;5070676;28;20136;-31
2022/02/16 06:38:41;;;;;;;22.73;3.42;;;;;;;8.04;100.00;99274.84;5070299;28;20106;-31
2022/02/16 06:41:12;;;;;;;17.38;2.13;;;;;;;8.04;100.00;99284.00;5069885;28;20135;-32
2022/02/16 06:43:40;;;;;;;16.67;2.17;;;;;;;8.04;100.00;99264.56;5071910;28;20557;-31
2022/02/16 06:46:10;;;;;;;14.70;1.92;;;;;;;8.04;100.00;99267.34;5070065;28;20041;-31
2022/02/16 06:48:39;;;;;;;16.42;2.03;;;;;;;8.05;100.00;99268.16;5069609;28;20563;-31
2022/02/16 06:51:06;;;;;;;16.08;2.10;;;;;;;8.05;100.00;99248.72;5071784;28;20044;-32
2022/02/16 06:53:34;;;;;;;15.43;2.17;;;;;;;8.08;100.00;99262.78;5070670;28;20386;-32
2022/02/16 06:56:02;;;;;;;15.05;1.80;;;;;;;8.11;100.00;99256.59;5070893;28;20049;-31
2022/02/16 06:58:49;;;;;;;22.85;2.50;;;;;;;8.10;100.00;99259.69;5064448;28;20516;-32
2022/02/16 07:01:18;;;;;;;24.88;3.22;;;;;;;8.10;100.00;99254.94;5069543;28;20055;-31
2022/02/16 07:03:50;;;;;;;26.70;3.40;;;;;;;8.13;100.00;99261.84;5070409;28;20091;-32
2022/02/16 07:06:23;;;;;;;29.27;4.35;;;;;;;8.16;100.00;99275.09;5069982;28;20076;-30
2022/02/16 07:08:52;;;;;;;19.08;2.85;;;;;;;8.21;100.00;99256.28;5068947;28;20448;-30
2022/02/16 07:11:20;;;;;;;24.45;3.90;;;;;;;8.26;100.00;99272.81;5068915;28;20054;-31
2022/02/16 07:13:48;;;;;;;27.08;4.18;;;;;;;8.29;100.00;99252.72;5069484;28;20062;-30
2022/02/16 07:16:16;;;;;;;31.50;3.65;;;;;;;8.33;100.00;99247.38;5068588;28;20056;-31
2022/02/16 07:18:45;;;;;;;34.38;3.85;;;;;;;8.37;100.00;99247.53;5068555;28;20055;-31
2022/02/16 07:21:23;;;;;;;37.80;4.50;;;;;;;8.38;100.00;99252.78;5068722;28;20466;-32
2022/02/16 07:23:53;;;;;;;29.20;3.72;;;;;;;8.43;100.00;99274.03;5068151;28;20049;-33
2022/02/16 07:26:24;;;;;;;35.13;4.30;;;;;;;8.44;100.00;99273.69;5070102;28;20067;-31
2022/02/16 07:28:53;;;;;;;36.50;4.45;;;;;;;8.48;100.00;99273.88;5069947;28;20072;-33
2022/02/16 07:31:23;;;;;;;31.92;4.45;;;;;;;8.51;100.00;99278.78;5066624;28;20057;-32
2022/02/16 07:33:52;;;;;;;30.10;3.97;;;;;;;8.53;100.00;99277.31;5069511;28;20117;-32
2022/02/16 07:36:21;;;;;;;39.25;4.75;;;;;;;8.54;100.00;99290.09;5068630;28;20047;-31
2022/02/16 07:38:49;;;;;;;32.28;4.82;;;;;;;8.56;100.00;99301.72;5070517;28;20036;-35
2022/02/16 07:41:17;;;;;;;34.35;4.18;;;;;;;8.59;100.00;99289.91;5067396;28;20048;-31
2022/02/16 07:44:04;;;;;;;32.00;4.75;;;;;;;8.61;100.00;99311.84;5071520;28;20051;-33
2022/02/16 07:46:40;;;;;;;26.02;3.60;;;;;;;8.64;100.00;99314.78;5069867;28;20127;-31
2022/02/16 07:49:09;;;;;;;31.58;5.03;;;;;;;8.67;100.00;99312.50;5070817;28;20059;-30
2022/02/16 07:51:55;;;;;;;27.42;4.05;;;;;;;8.67;100.00;99331.97;5070235;28;20055;-32
2022/02/16 07:54:38;;;;;;;;;;;;;;;8.69;100.00;99310.22;5070757;28;20056;-31
2022/02/16 07:57:21;;;;;;;34.80;4.88;;;;;;;8.69;100.00;99293.53;5058702;28;19921;-27
2022/02/16 07:59:50;;;;;;;32.83;4.95;;;;;;;8.76;100.00;99300.25;5069824;28;20536;-31
2022/02/16 08:02:17;;;;;;;32.05;3.67;;;;;;;8.79;100.00;99291.25;5068819;28;20045;-33
2022/02/16 08:04:47;;;;;;;31.75;3.67;;;;;;;8.79;100.00;99298.81;5068333;28;20512;-32
2022/02/16 08:07:15;;;;;;;28.23;3.47;;;;;;;8.78;100.00;99291.59;5069439;28;20416;-32
2022/02/16 08:09:43;;;;;;;30.20;4.38;;;;;;;8.79;100.00;99324.63;5069324;28;20053;-36
2022/02/16 08:12:12;;;;;;;33.80;4.57;;;;;;;8.88;100.00;99294.03;5068891;28;20452;-33
2022/02/16 08:14:40;;;;;;;32.90;4.38;;;;;;;9.01;100.00;99284.72;5070264;28;20044;-33
2022/02/16 08:17:09;;;;;;;32.63;4.70;;;;;;;9.12;100.00;99302.72;5069867;28;20102;-30
2022/02/16 08:19:37;;;;;;;30.40;4.55;;;;;;;9.22;100.00;99296.81;5070618;28;20118;-30
2022/02/16 08:22:06;;;;;;;30.92;3.97;;;;;;;9.39;100.00;99290.44;5070890;28;20048;-31
2022/02/16 08:24:37;;;;;;;19.90;3.42;;;;;;;9.57;100.00;99286.47;5069707;28;20071;-30
2022/02/16 08:27:09;;;;;;;29.35;4.07;;;;;;;9.75;100.00;99289.22;5069250;28;20440;-31
2022/02/16 08:29:44;;;;;;;29.50;4.25;;;;;;;9.82;100.00;99286.72;5067976;28;20056;-30
2022/02/16 08:32:24;;;;;;;34.50;5.07;;;;;;;9.87;100.00;99278.19;5069403;28;20527;-30
2022/02/16 08:35:07;;;;;;;27.43;4.30;;;;;;;9.93;100.00;99279.66;5070682;28;20063;-30
2022/02/16 08:37:41;;;;;;;25.60;3.53;;;;;;;10.01;100.00;99279.59;5069654;28;20079;-30
2022/02/16 08:40:11;;;;;;;27.30;4.35;;;;;;;10.01;100.00;99278.78;5070269;28;20125;-32
2022/02/16 08:42:39;;;;;;;27.73;3.90;;;;;;;9.92;100.00;99269.66;5070998;28;20051;-30
2022/02/16 08:45:08;;;;;;;23.85;3.88;;;;;;;9.84;100.00;99274.09;5070396;28;20048;-31
2022/02/16 08:47:39;;;;;;;27.95;4.38;;;;;;;9.71;100.00;99302.97;5070041;28;20131;-31
2022/02/16 08:50:08;;;;;;;28.75;3.85;;;;;;;9.61;100.00;99287.44;5070835;28;20115;-31
2022/02/16 08:52:35;;;;;;;22.50;4.07;;;;;;;9.58;100.00;99284.50;5070946;28;20052;-31
2022/02/16 08:55:06;;;;;;;32.47;3.83;;;;;;;9.62;100.00;99308.56;5070123;28;20052;-31
2022/02/16 08:57:36;;;;;;;30.02;3.95;;;;;;;9.64;100.00;99303.47;5062140;28;20048;-31
2022/02/16 09:00:05;;;;;;;23.27;3.80;;;;;;;9.60;100.00;99316.41;5070815;28;20058;-32
2022/02/16 09:02:34;;;;;;;23.63;3.58;;;;;;;9.57;100.00;99303.19;5070247;28;20040;-30
2022/02/16 09:05:01;;;;;;;28.00;3.80;;;;;;;9.56;100.00;99298.75;5070685;28;20049;-36
2022/02/16 09:07:30;;;;;;;32.70;4.22;;;;;;;9.62;100.00;99311.34;5070478;28;20049;-32
2022/02/16 09:10:01;;;;;;;30.60;4.15;;;;;;;9.57;100.00;99302.38;5069812;28;20056;-34
2022/02/16 09:12:31;;;;;;;26.40;4.28;;;;;;;9.58;100.00;99292.88;5069331;28;20044;-29
2022/02/16 09:15:00;;;;;;;29.45;4.32;;;;;;;9.55;100.00;99315.78;5069854;28;20414;-29
2022/02/16 09:17:28;;;;;;;31.70;4.00;;;;;;;9.50;100.00;99313.19;5070781;28;20413;-29
2022/02/16 09:19:57;;;;;;;25.20;4.07;;;;;;;9.54;100.00;99291.88;5070325;28;20428;-31
2022/02/16 09:22:26;;;;;;;26.67;3.83;;;;;;;9.56;100.00;99304.34;5069891;28;20058;-34
2022/02/16 09:24:55;;;;;;;28.30;4.55;;;;;;;9.61;100.00;99294.97;5070661;28;20048;-30
2022/02/16 09:27:23;;;;;;;25.38;4.75;;;;;;;9.61;100.00;99267.94;5070506;28;20076;-30
2022/02/16 09:29:54;;;;;;;26.38;3.90;;;;;;;9.62;100.00;99268.75;5065988;28;20126;-31
2022/02/16 09:32:22;;;;;;;27.17;4.07;;;;;;;9.64;100.00;99272.03;5070443;28;20052;-32
2022/02/16 09:34:54;;;;;;;29.67;3.65;;;;;;;9.64;100.00;99285.94;5070338;28;20501;-31
2022/02/16 09:37:23;;;;;;;25.77;3.53;;;;;;;9.67;100.00;99277.75;5070216;28;20116;-30
2022/02/16 09:39:51;;;;;;;31.65;3.67;;;;;;;9.68;100.00;99275.78;5070336;28;20046;-31
2022/02/16 09:42:19;;;;;;;26.60;4.07;;;;;;;9.69;100.00;99263.50;5070100;28;20049;-30
2022/02/16 09:44:51;;;;;;;27.60;4.15;;;;;;;9.73;100.00;99269.22;5073351;28;20139;-31
2022/02/16 09:47:20;;;;;;;26.60;3.40;;;;;;;9.71;100.00;99269.56;5072989;28;20052;-31
2022/02/16 09:49:48;;;;;;;32.25;4.30;;;;;;;9.69;100.00;99266.28;5071953;28;20099;-30
2022/02/16 09:52:16;;;;;;;24.35;3.67;;;;;;;9.71;100.00;99252.03;5074065;28;20052;-30
2022/02/16 09:54:44;;;;;;;25.55;4.10;;;;;;;9.70;100.00;99231.72;5074222;28;20467;-29
2022/02/16 09:57:12;;;;;;;28.17;3.50;;;;;;;9.69;100.00;99221.72;5073119;28;20055;-30
2022/02/16 09:59:40;;;;;;;22.38;3.38;;;;;;;9.72;100.00;99260.06;5073846;28;20049;-30
2022/02/16 10:02:10;;;;;;;22.25;3.50;;;;;;;9.76;100.00;99224.00;5073628;28;20063;-31
2022/02/16 10:04:52;;;;;;;25.55;4.40;;;;;;;9.77;100.00;99248.75;5073064;28;20048;-31
2022/02/16 10:07:21;;;;;;;;;;;;;;;9.71;100.00;99261.19;5074231;28;20071;-34
2022/02/16 10:09:50;;;;;;;29.08;4.28;;;;;;;9.71;100.00;99263.97;5074027;28;19920;-30
2022/02/16 10:12:18;;;;;;;26.52;4.07;;;;;;;9.71;100.00;99269.56;5072755;28;20173;-31
2022/02/16 10:14:52;;;;;;;24.25;3.90;;;;;;;9.74;100.00;99271.69;5073420;28;20103;-32
2022/02/16 10:17:21;;;;;;;25.30;4.18;;;;;;;9.78;100.00;99286.59;5073602;28;20067;-31
2022/02/16 10:19:52;;;;;;;25.40;3.85;;;;;;;9.81;100.00;99285.06;5072594;28;20142;-31
2022/02/16 10:22:21;;;;;;;32.63;3.95;;;;;;;9.81;100.00;99297.03;5073391;28;20127;-33
2022/02/16 10:24:49;;;;;;;23.73;4.00;;;;;;;9.83;100.00;99291.13;5073314;28;20048;-30
2022/02/16 10:27:18;;;;;;;26.40;4.82;;;;;;;9.83;100.00;99291.13;5072536;28;20048;-31
2022/02/16 10:29:46;;;;;;;20.48;3.38;;;;;;;9.85;100.00;99303.59;5073106;28;20076;-31
2022/02/16 10:32:27;;;;;;;28.02;3.88;;;;;;;9.82;100.00;99318.19;5072683;28;20059;-31
2022/02/16 10:34:58;;;;;;;33.65;4.38;;;;;;;9.80;100.00;99316.88;5073491;28;20064;-30
2022/02/16 10:37:32;;;;;;;31.17;4.80;;;;;;;9.75;100.00;99337.38;5073149;28;20033;-32
2022/02/16 10:40:04;;;;;;;33.83;4.55;;;;;;;9.70;100.00;99328.38;5073009;28;20044;-33
2022/02/16 10:42:33;;;;;;;26.05;3.70;;;;;;;9.65;100.00;99337.72;5072970;28;20123;-38
2022/02/16 10:45:06;;;;;;;33.65;4.68;;;;;;;9.67;100.00;99332.63;5073150;28;20052;-34
2022/02/16 10:47:52;;;;;;;31.95;4.82;;;;;;;9.70;100.00;99337.56;5069649;28;20066;-30
2022/02/16 10:50:22;;;;;;;24.05;4.22;;;;;;;9.71;100.00;99355.91;5073152;28;20057;-30
2022/02/16 10:52:53;;;;;;;36.25;4.78;;;;;;;9.64;100.00;99367.53;5072105;28;20131;-32
2022/02/16 10:55:34;;;;;;;32.33;4.93;;;;;;;9.65;100.00;99360.00;5072160;28;20090;-30
2022/02/16 10:58:04;;;;;;;34.80;5.40;;;;;;;9.64;100.00;99344.44;5071031;28;20084;-30
2022/02/16 11:00:34;;;;;;;35.38;4.63;;;;;;;9.68;100.00;99328.69;5071969;28;20041;-34
2022/02/16 11:03:04;;;;;;;33.53;4.75;;;;;;;9.65;100.00;99343.28;5069493;28;20048;-30
2022/02/16 11:05:39;;;;;;;35.30;4.80;;;;;;;9.64;100.00;99339.69;5072964;28;20398;-31
2022/02/16 11:08:12;;;;;;;34.90;4.45;;;;;;;9.64;100.00;99341.66;5071525;28;20572;-31
2022/02/16 11:10:40;;;;;;;24.17;5.00;;;;;;;9.69;100.00;99352.63;5061979;28;20128;-31
2022/02/16 11:13:10;;;;;;;31.42;5.47;;;;;;;9.72;100.00;99365.91;5072198;28;20053;-30
2022/02/16 11:15:38;;;;;;;29.73;4.55;;;;;;;9.70;100.00;99370.97;5072316;28;20572;-32
2022/02/16 11:18:14;;;;;;;34.63;4.68;;;;;;;9.68;100.00;99370.47;5072472;28;20048;-29
2022/02/16 11:20:43;;;;;;;31.33;5.43;;;;;;;9.71;100.00;99375.41;5069977;28;20047;-31
2022/02/16 11:23:13;;;;;;;31.30;4.90;;;;;;;9.74;100.00;99390.63;5071676;28;20060;-31
2022/02/16 11:25:44;;;;;;;29.02;4.43;;;;;;;9.70;100.00;99379.34;5072431;28;20052;-31
2022/02/16 11:28:54;;;;;;;36.00;5.85;;;;;;;9.70;100.00;99384.91;5009160;28;20053;-30
2022/02/16 11:31:29;;;;;;;39.78;5.20;;;;;;;9.68;100.00;99392.75;4999615;28;20511;-32
2022/02/16 11:34:18;;;;;;;30.92;4.65;;;;;;;9.73;100.00;99395.38;5009638;28;20046;-30
2022/02/16 11:36:49;;;;;;;28.70;5.10;;;;;;;9.75;100.00;99404.25;5000496;28;20529;-33
2022/02/16 11:39:40;;;;;;;33.13;6.10;;;;;;;9.74;100.00;99405.38;5010037;28;20462;-31